Time;durP1;ratioP1;P1;durP2;ratioP2;P2;SDS_P1;SDS_P2;PMS_P1;PMS_P2;Temp;Humidity;BMP_temperature;BMP_pressure;BME280_temperature;BME280_humidity;BME280_pressure;Samples;Min_cycle;Max_cycle;Signal;HPM_P1;HPM_P2
2021/08/06 00:01:18;;;;;;;1.80;1.27;;;16.20;99.90;;;;;;6130349;23;20405;-85
2021/08/06 00:27:04;;;;;;;1.70;1.40;;;16.10;99.90;;;;;;6071869;23;20563;-86
2021/08/06 00:40:12;;;;;;;1.40;1.30;;;15.90;99.90;;;;;;6159493;23;20410;-86
2021/08/06 00:53:26;;;;;;;;;;;;;;;;;;;;;
2021/08/06 00:59:48;;;;;;;;;;;;;;;;;;;;;
2021/08/06 01:03:33;;;;;;;;;;;;;;;;;;;;;
2021/08/06 01:16:52;;;;;;;2.67;1.60;;;15.80;99.90;;;;;;6016791;23;20419;-85
2021/08/06 01:32:24;;;;;;;1.17;1.10;;;15.50;99.90;;;;;;6096931;23;20412;-86
2021/08/06 01:35:41;;;;;;;1.97;1.87;;;15.50;99.90;;;;;;6011095;23;20535;-86
2021/08/06 01:39:00;;;;;;;1.27;1.23;;;15.50;99.90;;;;;;6187082;23;20457;-86
2021/08/06 01:42:06;;;;;;;1.87;1.60;;;15.60;99.90;;;;;;6041726;23;20418;-87
2021/08/06 01:58:12;;;;;;;;;;;;;;;;;;;;;
2021/08/06 02:07:35;;;;;;;1.67;1.53;;;15.70;99.90;;;;;;6125568;23;20550;-86
2021/08/06 02:10:43;;;;;;;2.20;1.77;;;15.80;99.90;;;;;;6191217;23;20747;-86
2021/08/06 02:16:42;;;;;;;1.70;1.60;;;15.90;99.90;;;;;;6175164;23;20399;-86
2021/08/06 02:19:25;;;;;;;;;;;;;;;;;;;;;
2021/08/06 02:32:15;;;;;;;1.80;1.70;;;16.10;99.90;;;;;;6189147;23;20454;-86
2021/08/06 02:44:37;;;;;;;;;;;;;;;;;;;;;
2021/08/06 02:50:33;;;;;;;1.43;1.33;;;16.40;99.90;;;;;;6202053;23;20861;-86
2021/08/06 03:02:36;;;;;;;2.13;1.60;;;16.50;99.90;;;;;;6189004;23;20491;-84
2021/08/06 03:05:25;;;;;;;;;;;;;;;;;;;;;
2021/08/06 03:15:31;;;;;;;2.13;1.80;;;16.50;99.90;;;;;;6048358;23;20419;-84
2021/08/06 03:18:29;;;;;;;1.67;1.57;;;16.40;99.90;;;;;;6169278;23;20423;-85
2021/08/06 03:24:44;;;;;;;2.30;1.70;;;16.50;99.90;;;;;;6202645;23;20446;-85
2021/08/06 03:27:53;;;;;;;;;;;;;;;;;;;;;
2021/08/06 03:34:12;;;;;;;3.10;2.13;;;16.40;99.90;;;;;;6203303;23;20398;-85
2021/08/06 03:36:56;;;;;;;2.10;2.00;;;16.50;99.90;;;;;;6203387;23;20443;-85
2021/08/06 03:39:47;;;;;;;2.30;2.20;;;16.30;99.90;;;;;;6203960;23;20417;-86
2021/08/06 03:48:39;;;;;;;1.97;1.77;;;16.30;99.90;;;;;;6159983;23;20502;-85
2021/08/06 03:51:37;;;;;;;2.10;1.90;;;16.40;99.90;;;;;;6204814;23;20823;-84
2021/08/06 04:00:54;;;;;;;1.80;1.70;;;16.40;99.90;;;;;;6199235;23;20383;-83
2021/08/06 04:07:04;;;;;;;2.83;2.30;;;16.50;99.90;;;;;;6191220;23;20521;-82
2021/08/06 04:09:47;;;;;;;2.70;1.80;;;16.50;99.90;;;;;;6210147;23;20413;-83
2021/08/06 04:15:34;;;;;;;1.80;1.70;;;16.40;99.90;;;;;;6098641;23;20413;-84
2021/08/06 04:18:25;;;;;;;1.93;1.83;;;16.40;99.90;;;;;;6204743;23;20434;-84
2021/08/06 04:21:35;;;;;;;1.97;1.87;;;16.50;99.90;;;;;;6211535;23;20441;-85
2021/08/06 04:27:35;;;;;;;1.53;1.43;;;16.40;99.90;;;;;;6209977;23;20472;-85
2021/08/06 04:33:28;;;;;;;2.10;2.00;;;16.30;99.90;;;;;;6202846;23;20929;-86
2021/08/06 04:36:10;;;;;;;2.50;2.30;;;16.20;99.90;;;;;;6208059;23;20418;-85
2021/08/06 04:38:57;;;;;;;2.27;1.97;;;16.20;99.90;;;;;;6209807;23;20441;-87
2021/08/06 04:41:48;;;;;;;2.33;2.20;;;16.10;99.90;;;;;;6205123;23;20418;-86
2021/08/06 04:54:46;;;;;;;2.53;2.33;;;16.00;99.90;;;;;;6197502;23;20445;-86
2021/08/06 10:49:54;;;;;;;;;;;;;;;;;;;;;
2021/08/06 10:52:59;;;;;;;;;;;;;;;;;;;;;
2021/08/06 16:55:29;;;;;;;2.10;1.07;;;26.30;74.60;;;;;;6008202;23;20515;-88
2021/08/06 16:57:56;;;;;;;1.33;1.23;;;25.60;77.60;;;;;;6120727;23;20444;-88
2021/08/06 17:00:22;;;;;;;2.23;1.10;;;25.60;78.20;;;;;;6123043;23;20417;-89
2021/08/06 17:02:49;;;;;;;1.23;1.13;;;25.80;76.40;;;;;;6152302;23;20436;-89
2021/08/06 17:05:18;;;;;;;1.00;0.80;;;25.70;76.20;;;;;;6185866;23;20434;-88
2021/08/06 17:07:45;;;;;;;2.00;1.60;;;25.70;78.40;;;;;;6185418;23;20408;-88
2021/08/06 17:10:12;;;;;;;1.20;1.10;;;25.80;77.00;;;;;;6185390;23;20808;-89
2021/08/06 17:12:41;;;;;;;1.13;1.00;;;25.80;76.70;;;;;;6184544;23;20425;-89
2021/08/06 17:15:09;;;;;;;1.47;1.37;;;25.60;72.40;;;;;;6184461;23;20410;-88
2021/08/06 17:17:35;;;;;;;1.57;1.47;;;24.80;73.30;;;;;;6184924;23;20445;-89
2021/08/06 17:20:04;;;;;;;1.53;1.30;;;24.30;76.20;;;;;;6184967;23;20500;-88
2021/08/06 17:22:30;;;;;;;0.93;0.83;;;23.40;76.30;;;;;;6185160;23;20452;-88
2021/08/06 17:24:57;;;;;;;1.33;1.10;;;22.90;78.40;;;;;;6185714;23;20495;-88
2021/08/06 17:27:24;;;;;;;0.80;0.70;;;22.20;79.70;;;;;;6185123;23;20504;-88
2021/08/06 17:29:52;;;;;;;1.93;1.17;;;22.30;81.00;;;;;;6185519;23;20506;-88
2021/08/06 17:32:19;;;;;;;3.13;1.10;;;22.30;81.80;;;;;;6185078;23;20839;-88
2021/08/06 17:34:46;;;;;;;1.93;1.30;;;22.20;82.90;;;;;;6185349;23;20415;-88
2021/08/06 17:37:13;;;;;;;0.70;0.70;;;22.30;83.20;;;;;;6185327;23;21004;-88
2021/08/06 17:39:39;;;;;;;1.90;0.90;;;22.10;84.40;;;;;;6185635;23;20813;-88
2021/08/06 17:42:07;;;;;;;0.70;0.70;;;22.10;84.60;;;;;;6185339;23;20446;-89
2021/08/06 17:44:34;;;;;;;1.40;1.30;;;22.00;84.60;;;;;;6186087;23;20398;-89
2021/08/06 17:47:03;;;;;;;0.67;0.67;;;22.00;85.10;;;;;;6185109;23;20973;-88
2021/08/06 17:49:31;;;;;;;1.07;0.97;;;21.80;85.30;;;;;;6185454;23;20465;-88
2021/08/06 17:51:58;;;;;;;1.37;0.90;;;21.60;85.80;;;;;;6184977;23;20429;-88
2021/08/06 17:54:25;;;;;;;1.40;1.10;;;21.50;86.70;;;;;;6185492;23;20562;-88
2021/08/06 17:56:51;;;;;;;2.60;0.97;;;21.40;87.40;;;;;;6185429;23;20509;-88
2021/08/06 17:59:18;;;;;;;1.23;1.13;;;21.40;87.70;;;;;;6185479;23;20728;-88
2021/08/06 18:02:05;;;;;;;2.40;1.10;;;21.40;87.00;;;;;;6185954;23;20453;-88
2021/08/06 18:04:32;;;;;;;0.80;0.80;;;21.40;87.50;;;;;;6187292;23;20394;-88
2021/08/06 18:06:59;;;;;;;1.47;1.03;;;21.30;87.30;;;;;;6187209;23;20402;-88
2021/08/06 18:09:25;;;;;;;1.57;1.37;;;21.30;87.80;;;;;;6187462;23;20464;-88
2021/08/06 18:11:52;;;;;;;1.03;0.93;;;21.30;88.80;;;;;;6187065;23;20433;-88
2021/08/06 18:14:22;;;;;;;1.43;1.13;;;21.30;89.10;;;;;;6187262;23;20395;-88
2021/08/06 18:16:49;;;;;;;0.70;0.70;;;21.40;87.70;;;;;;6187130;23;20408;-88
2021/08/06 18:19:18;;;;;;;1.43;0.70;;;21.50;87.50;;;;;;6187916;23;20410;-88
2021/08/06 18:21:45;;;;;;;4.90;3.00;;;21.40;87.60;;;;;;6187383;23;20434;-88
2021/08/06 18:24:12;;;;;;;2.33;1.73;;;21.50;87.90;;;;;;6187919;23;20437;-88
2021/08/06 18:26:39;;;;;;;2.03;1.23;;;21.50;87.50;;;;;;6188007;23;20441;-88
2021/08/06 18:29:06;;;;;;;2.80;0.90;;;21.40;87.70;;;;;;6187841;23;20479;-89
2021/08/06 18:31:33;;;;;;;2.00;1.30;;;21.40;87.90;;;;;;6187097;23;20554;-88
2021/08/06 18:34:00;;;;;;;2.40;1.00;;;21.30;88.00;;;;;;6187398;23;20406;-88
2021/08/06 18:36:28;;;;;;;3.40;1.03;;;21.30;88.40;;;;;;6188862;23;20422;-88
2021/08/06 18:38:55;;;;;;;2.63;1.13;;;21.30;88.50;;;;;;6188762;23;20967;-88
2021/08/06 18:41:22;;;;;;;1.23;0.90;;;21.20;88.70;;;;;;6188421;23;20869;-88
2021/08/06 18:43:52;;;;;;;1.57;1.10;;;21.10;89.30;;;;;;6188057;23;20410;-88
2021/08/06 18:46:19;;;;;;;0.80;0.77;;;21.00;89.70;;;;;;6187768;23;20463;-88
2021/08/06 18:52:09;;;;;;;1.50;1.30;;;20.70;90.40;;;;;;6151300;23;20414;-88
2021/08/06 18:54:36;;;;;;;1.40;1.30;;;20.50;90.80;;;;;;6187524;23;20469;-88
2021/08/06 18:57:03;;;;;;;1.00;1.00;;;20.50;91.00;;;;;;6187150;23;20492;-88
2021/08/06 19:13:59;;;;;;;;;;;;;;;;;;;;;
